sensor_id;sensor_type;location;lat;lon;timestamp;P1;durP1;ratioP1;P2;durP2;ratioP2
6019;SDS011;3038;51.122;6.840;2023-03-19T00:00:27;6.10;;;5.10;;
6019;SDS011;3038;51.122;6.840;2023-03-19T00:02:53;7.07;;;4.83;;
6019;SDS011;3038;51.122;6.840;2023-03-19T00:05:18;4.93;;;4.53;;
6019;SDS011;3038;51.122;6.840;2023-03-19T00:07:44;6.07;;;5.30;;
6019;SDS011;3038;51.122;6.840;2023-03-19T00:10:09;5.60;;;5.10;;
6019;SDS011;3038;51.122;6.840;2023-03-19T00:12:35;6.90;;;4.73;;
6019;SDS011;3038;51.122;6.840;2023-03-19T00:15:00;6.00;;;4.90;;
6019;SDS011;3038;51.122;6.840;2023-03-19T00:17:26;5.30;;;4.80;;
6019;SDS011;3038;51.122;6.840;2023-03-19T00:19:51;6.60;;;4.90;;
6019;SDS011;3038;51.122;6.840;2023-03-19T00:22:17;7.13;;;5.27;;
6019;SDS011;3038;51.122;6.840;2023-03-19T00:24:42;6.50;;;5.53;;
6019;SDS011;3038;51.122;6.840;2023-03-19T00:27:08;6.60;;;5.60;;
6019;SDS011;3038;51.122;6.840;2023-03-19T00:29:33;5.20;;;4.70;;
6019;SDS011;3038;51.122;6.840;2023-03-19T00:31:59;6.03;;;5.50;;
6019;SDS011;3038;51.122;6.840;2023-03-19T00:34:25;5.23;;;4.67;;
6019;SDS011;3038;51.122;6.840;2023-03-19T00:36:50;5.90;;;4.83;;
6019;SDS011;3038;51.122;6.840;2023-03-19T00:39:16;6.53;;;5.20;;
6019;SDS011;3038;51.122;6.840;2023-03-19T00:41:41;6.00;;;5.30;;
6019;SDS011;3038;51.122;6.840;2023-03-19T00:44:14;6.03;;;5.50;;
6019;SDS011;3038;51.122;6.840;2023-03-19T00:46:41;7.47;;;5.23;;
6019;SDS011;3038;51.122;6.840;2023-03-19T00:49:06;8.57;;;6.13;;
6019;SDS011;3038;51.122;6.840;2023-03-19T00:51:31;6.93;;;6.20;;
6019;SDS011;3038;51.122;6.840;2023-03-19T00:53:57;6.87;;;5.43;;
6019;SDS011;3038;51.122;6.840;2023-03-19T00:56:22;6.83;;;5.53;;
6019;SDS011;3038;51.122;6.840;2023-03-19T00:58:47;6.93;;;5.67;;
6019;SDS011;3038;51.122;6.840;2023-03-19T01:01:14;6.37;;;5.80;;
6019;SDS011;3038;51.122;6.840;2023-03-19T01:03:41;6.07;;;5.57;;
6019;SDS011;3038;51.122;6.840;2023-03-19T01:06:07;8.73;;;6.13;;
6019;SDS011;3038;51.122;6.840;2023-03-19T01:08:33;6.57;;;5.90;;
6019;SDS011;3038;51.122;6.840;2023-03-19T01:11:09;6.67;;;6.00;;
6019;SDS011;3038;51.122;6.840;2023-03-19T01:13:37;8.93;;;5.97;;
6019;SDS011;3038;51.122;6.840;2023-03-19T01:16:02;7.23;;;6.37;;
6019;SDS011;3038;51.122;6.840;2023-03-19T01:18:28;7.07;;;6.20;;
6019;SDS011;3038;51.122;6.840;2023-03-19T01:20:54;5.20;;;4.70;;
6019;SDS011;3038;51.122;6.840;2023-03-19T01:23:19;5.83;;;5.33;;
6019;SDS011;3038;51.122;6.840;2023-03-19T01:25:44;7.07;;;6.37;;
6019;SDS011;3038;51.122;6.840;2023-03-19T01:28:10;6.27;;;5.67;;
6019;SDS011;3038;51.122;6.840;2023-03-19T01:30:35;6.97;;;5.47;;
6019;SDS011;3038;51.122;6.840;2023-03-19T01:33:01;7.33;;;5.23;;
6019;SDS011;3038;51.122;6.840;2023-03-19T01:35:26;6.67;;;6.07;;
6019;SDS011;3038;51.122;6.840;2023-03-19T01:37:52;7.20;;;6.07;;
6019;SDS011;3038;51.122;6.840;2023-03-19T01:40:18;6.97;;;5.80;;
6019;SDS011;3038;51.122;6.840;2023-03-19T01:42:50;6.77;;;6.17;;
6019;SDS011;3038;51.122;6.840;2023-03-19T01:45:36;8.83;;;6.07;;
6019;SDS011;3038;51.122;6.840;2023-03-19T01:48:03;8.13;;;5.80;;
6019;SDS011;3038;51.122;6.840;2023-03-19T01:50:33;6.83;;;6.00;;
6019;SDS011;3038;51.122;6.840;2023-03-19T01:53:06;6.30;;;5.70;;
6019;SDS011;3038;51.122;6.840;2023-03-19T01:55:33;10.20;;;5.70;;
6019;SDS011;3038;51.122;6.840;2023-03-19T01:57:58;8.47;;;6.47;;
6019;SDS011;3038;51.122;6.840;2023-03-19T02:00:25;11.63;;;6.73;;
6019;SDS011;3038;51.122;6.840;2023-03-19T02:02:52;7.53;;;6.40;;
6019;SDS011;3038;51.122;6.840;2023-03-19T02:05:23;7.30;;;6.40;;
6019;SDS011;3038;51.122;6.840;2023-03-19T02:07:59;6.40;;;5.80;;
6019;SDS011;3038;51.122;6.840;2023-03-19T02:10:29;7.70;;;6.90;;
6019;SDS011;3038;51.122;6.840;2023-03-19T02:12:55;7.73;;;6.80;;
6019;SDS011;3038;51.122;6.840;2023-03-19T02:15:21;8.97;;;6.40;;
6019;SDS011;3038;51.122;6.840;2023-03-19T02:17:46;7.73;;;6.60;;
6019;SDS011;3038;51.122;6.840;2023-03-19T02:22:42;8.20;;;6.83;;
6019;SDS011;3038;51.122;6.840;2023-03-19T02:25:20;8.50;;;7.53;;
6019;SDS011;3038;51.122;6.840;2023-03-19T02:27:52;9.00;;;7.60;;
6019;SDS011;3038;51.122;6.840;2023-03-19T02:30:23;8.87;;;7.40;;
6019;SDS011;3038;51.122;6.840;2023-03-19T02:32:51;10.17;;;7.63;;
6019;SDS011;3038;51.122;6.840;2023-03-19T02:35:16;10.00;;;6.97;;
6019;SDS011;3038;51.122;6.840;2023-03-19T02:37:42;8.77;;;7.87;;
6019;SDS011;3038;51.122;6.840;2023-03-19T02:40:08;7.80;;;6.97;;
6019;SDS011;3038;51.122;6.840;2023-03-19T02:42:38;6.93;;;6.23;;
6019;SDS011;3038;51.122;6.840;2023-03-19T02:45:04;7.10;;;6.40;;
6019;SDS011;3038;51.122;6.840;2023-03-19T02:47:31;7.77;;;7.10;;
6019;SDS011;3038;51.122;6.840;2023-03-19T02:49:56;10.17;;;7.80;;
6019;SDS011;3038;51.122;6.840;2023-03-19T02:52:22;8.13;;;7.20;;
6019;SDS011;3038;51.122;6.840;2023-03-19T02:54:47;7.97;;;7.27;;
6019;SDS011;3038;51.122;6.840;2023-03-19T02:57:13;7.70;;;7.00;;
6019;SDS011;3038;51.122;6.840;2023-03-19T02:59:38;6.90;;;6.30;;
6019;SDS011;3038;51.122;6.840;2023-03-19T03:02:04;8.83;;;7.17;;
6019;SDS011;3038;51.122;6.840;2023-03-19T03:04:30;8.80;;;7.00;;
6019;SDS011;3038;51.122;6.840;2023-03-19T03:06:57;7.53;;;6.70;;
6019;SDS011;3038;51.122;6.840;2023-03-19T03:09:23;7.23;;;6.30;;
6019;SDS011;3038;51.122;6.840;2023-03-19T03:11:48;7.70;;;6.60;;
6019;SDS011;3038;51.122;6.840;2023-03-19T03:14:13;7.50;;;6.43;;
6019;SDS011;3038;51.122;6.840;2023-03-19T03:16:39;9.97;;;6.63;;
6019;SDS011;3038;51.122;6.840;2023-03-19T03:19:05;8.80;;;6.67;;
6019;SDS011;3038;51.122;6.840;2023-03-19T03:21:31;7.70;;;6.50;;
6019;SDS011;3038;51.122;6.840;2023-03-19T03:23:56;6.93;;;6.33;;
6019;SDS011;3038;51.122;6.840;2023-03-19T03:26:21;6.73;;;6.03;;
6019;SDS011;3038;51.122;6.840;2023-03-19T03:28:47;6.97;;;6.30;;
6019;SDS011;3038;51.122;6.840;2023-03-19T03:31:12;7.13;;;6.33;;
6019;SDS011;3038;51.122;6.840;2023-03-19T03:33:38;6.77;;;6.07;;
6019;SDS011;3038;51.122;6.840;2023-03-19T03:36:04;7.87;;;6.23;;
6019;SDS011;3038;51.122;6.840;2023-03-19T03:38:31;7.00;;;6.30;;
6019;SDS011;3038;51.122;6.840;2023-03-19T03:40:57;7.27;;;6.37;;
6019;SDS011;3038;51.122;6.840;2023-03-19T03:43:23;7.17;;;6.40;;
6019;SDS011;3038;51.122;6.840;2023-03-19T03:45:49;9.73;;;5.87;;
6019;SDS011;3038;51.122;6.840;2023-03-19T03:48:15;6.33;;;5.80;;
6019;SDS011;3038;51.122;6.840;2023-03-19T03:50:41;7.27;;;6.40;;
6019;SDS011;3038;51.122;6.840;2023-03-19T03:53:07;9.53;;;5.93;;
6019;SDS011;3038;51.122;6.840;2023-03-19T03:55:32;6.33;;;5.77;;
6019;SDS011;3038;51.122;6.840;2023-03-19T03:57:58;7.40;;;6.30;;
6019;SDS011;3038;51.122;6.840;2023-03-19T04:00:24;8.30;;;6.40;;
6019;SDS011;3038;51.122;6.840;2023-03-19T04:02:50;6.60;;;5.70;;
6019;SDS011;3038;51.122;6.840;2023-03-19T04:05:16;8.27;;;6.07;;
6019;SDS011;3038;51.122;6.840;2023-03-19T04:07:41;9.10;;;7.20;;
6019;SDS011;3038;51.122;6.840;2023-03-19T04:10:08;6.70;;;6.00;;
6019;SDS011;3038;51.122;6.840;2023-03-19T04:12:35;6.40;;;5.50;;
6019;SDS011;3038;51.122;6.840;2023-03-19T04:15:02;6.20;;;5.60;;
6019;SDS011;3038;51.122;6.840;2023-03-19T04:17:28;7.30;;;6.67;;
6019;SDS011;3038;51.122;6.840;2023-03-19T04:19:53;6.57;;;5.43;;
6019;SDS011;3038;51.122;6.840;2023-03-19T04:22:19;9.17;;;6.03;;
6019;SDS011;3038;51.122;6.840;2023-03-19T04:24:44;6.27;;;5.67;;
6019;SDS011;3038;51.122;6.840;2023-03-19T04:27:09;7.67;;;5.33;;
6019;SDS011;3038;51.122;6.840;2023-03-19T04:29:35;11.33;;;6.03;;
6019;SDS011;3038;51.122;6.840;2023-03-19T04:32:00;5.40;;;4.90;;
6019;SDS011;3038;51.122;6.840;2023-03-19T04:34:26;10.10;;;4.80;;
6019;SDS011;3038;51.122;6.840;2023-03-19T04:36:51;5.50;;;4.20;;
6019;SDS011;3038;51.122;6.840;2023-03-19T04:39:17;3.83;;;3.53;;
6019;SDS011;3038;51.122;6.840;2023-03-19T04:41:43;4.67;;;3.80;;
6019;SDS011;3038;51.122;6.840;2023-03-19T04:44:09;4.80;;;3.13;;
6019;SDS011;3038;51.122;6.840;2023-03-19T04:46:34;6.83;;;4.00;;
6019;SDS011;3038;51.122;6.840;2023-03-19T04:49:00;5.17;;;3.93;;
6019;SDS011;3038;51.122;6.840;2023-03-19T04:51:26;3.80;;;3.47;;
6019;SDS011;3038;51.122;6.840;2023-03-19T04:53:51;4.97;;;3.40;;
6019;SDS011;3038;51.122;6.840;2023-03-19T04:56:16;3.53;;;2.90;;
6019;SDS011;3038;51.122;6.840;2023-03-19T04:58:42;6.43;;;3.60;;
6019;SDS011;3038;51.122;6.840;2023-03-19T05:01:08;6.53;;;3.93;;
6019;SDS011;3038;51.122;6.840;2023-03-19T05:03:34;3.20;;;3.00;;
6019;SDS011;3038;51.122;6.840;2023-03-19T05:06:00;3.47;;;3.17;;
6019;SDS011;3038;51.122;6.840;2023-03-19T05:08:25;4.03;;;3.53;;
6019;SDS011;3038;51.122;6.840;2023-03-19T05:10:51;3.83;;;3.47;;
6019;SDS011;3038;51.122;6.840;2023-03-19T05:13:16;4.53;;;3.23;;
6019;SDS011;3038;51.122;6.840;2023-03-19T05:15:42;3.87;;;3.13;;
6019;SDS011;3038;51.122;6.840;2023-03-19T05:18:08;4.20;;;3.60;;
6019;SDS011;3038;51.122;6.840;2023-03-19T05:20:34;4.27;;;3.87;;
6019;SDS011;3038;51.122;6.840;2023-03-19T05:23:01;4.30;;;3.30;;
6019;SDS011;3038;51.122;6.840;2023-03-19T05:25:26;4.80;;;3.80;;
6019;SDS011;3038;51.122;6.840;2023-03-19T05:27:53;5.90;;;4.93;;
6019;SDS011;3038;51.122;6.840;2023-03-19T05:30:18;5.03;;;4.63;;
6019;SDS011;3038;51.122;6.840;2023-03-19T05:32:43;5.73;;;5.23;;
6019;SDS011;3038;51.122;6.840;2023-03-19T05:35:10;5.87;;;4.47;;
6019;SDS011;3038;51.122;6.840;2023-03-19T05:37:36;5.50;;;4.73;;
6019;SDS011;3038;51.122;6.840;2023-03-19T05:40:02;6.57;;;4.80;;
6019;SDS011;3038;51.122;6.840;2023-03-19T05:42:28;3.73;;;3.30;;
6019;SDS011;3038;51.122;6.840;2023-03-19T05:44:53;3.63;;;3.33;;
6019;SDS011;3038;51.122;6.840;2023-03-19T05:47:19;3.83;;;3.40;;
6019;SDS011;3038;51.122;6.840;2023-03-19T05:49:45;4.30;;;3.47;;
6019;SDS011;3038;51.122;6.840;2023-03-19T05:52:11;7.50;;;3.57;;
6019;SDS011;3038;51.122;6.840;2023-03-19T05:54:36;3.27;;;3.07;;
6019;SDS011;3038;51.122;6.840;2023-03-19T05:57:02;4.53;;;3.13;;
6019;SDS011;3038;51.122;6.840;2023-03-19T05:59:28;3.20;;;2.90;;
6019;SDS011;3038;51.122;6.840;2023-03-19T06:01:53;4.50;;;3.40;;
6019;SDS011;3038;51.122;6.840;2023-03-19T06:04:18;3.30;;;3.00;;
6019;SDS011;3038;51.122;6.840;2023-03-19T06:06:44;5.30;;;3.67;;
6019;SDS011;3038;51.122;6.840;2023-03-19T06:09:10;7.13;;;3.43;;
6019;SDS011;3038;51.122;6.840;2023-03-19T06:11:35;3.77;;;3.13;;
6019;SDS011;3038;51.122;6.840;2023-03-19T06:14:03;3.97;;;3.57;;
6019;SDS011;3038;51.122;6.840;2023-03-19T06:16:28;3.93;;;3.30;;
6019;SDS011;3038;51.122;6.840;2023-03-19T06:18:54;4.37;;;3.20;;
6019;SDS011;3038;51.122;6.840;2023-03-19T06:21:20;4.10;;;3.43;;
6019;SDS011;3038;51.122;6.840;2023-03-19T06:23:45;6.20;;;4.03;;
6019;SDS011;3038;51.122;6.840;2023-03-19T06:26:10;5.27;;;3.10;;
6019;SDS011;3038;51.122;6.840;2023-03-19T06:28:36;3.33;;;3.10;;
6019;SDS011;3038;51.122;6.840;2023-03-19T06:31:01;3.50;;;3.17;;
6019;SDS011;3038;51.122;6.840;2023-03-19T06:33:27;4.30;;;3.53;;
6019;SDS011;3038;51.122;6.840;2023-03-19T06:35:56;3.40;;;3.07;;
6019;SDS011;3038;51.122;6.840;2023-03-19T06:38:22;4.03;;;3.53;;
6019;SDS011;3038;51.122;6.840;2023-03-19T06:40:47;5.50;;;5.00;;
6019;SDS011;3038;51.122;6.840;2023-03-19T06:43:15;4.90;;;4.30;;
6019;SDS011;3038;51.122;6.840;2023-03-19T06:45:41;5.17;;;4.67;;
6019;SDS011;3038;51.122;6.840;2023-03-19T06:48:06;6.10;;;4.83;;
6019;SDS011;3038;51.122;6.840;2023-03-19T06:50:32;7.57;;;5.70;;
6019;SDS011;3038;51.122;6.840;2023-03-19T06:52:57;4.93;;;4.40;;
6019;SDS011;3038;51.122;6.840;2023-03-19T06:55:22;4.20;;;3.80;;
6019;SDS011;3038;51.122;6.840;2023-03-19T06:57:48;4.20;;;3.80;;
6019;SDS011;3038;51.122;6.840;2023-03-19T07:00:15;3.53;;;3.23;;
6019;SDS011;3038;51.122;6.840;2023-03-19T07:02:40;5.50;;;4.30;;
6019;SDS011;3038;51.122;6.840;2023-03-19T07:05:06;3.20;;;2.90;;
6019;SDS011;3038;51.122;6.840;2023-03-19T07:07:31;4.70;;;3.80;;
6019;SDS011;3038;51.122;6.840;2023-03-19T07:09:57;4.20;;;3.40;;
6019;SDS011;3038;51.122;6.840;2023-03-19T07:12:22;7.63;;;3.50;;
6019;SDS011;3038;51.122;6.840;2023-03-19T07:14:47;5.23;;;3.83;;
6019;SDS011;3038;51.122;6.840;2023-03-19T07:17:13;3.70;;;3.20;;
6019;SDS011;3038;51.122;6.840;2023-03-19T07:19:38;4.00;;;3.57;;
6019;SDS011;3038;51.122;6.840;2023-03-19T07:22:04;3.40;;;3.10;;
6019;SDS011;3038;51.122;6.840;2023-03-19T07:24:29;3.70;;;3.40;;
6019;SDS011;3038;51.122;6.840;2023-03-19T07:26:55;4.23;;;3.40;;
6019;SDS011;3038;51.122;6.840;2023-03-19T07:29:21;4.27;;;3.20;;
6019;SDS011;3038;51.122;6.840;2023-03-19T07:31:46;3.80;;;3.50;;
6019;SDS011;3038;51.122;6.840;2023-03-19T07:34:12;4.73;;;3.53;;
6019;SDS011;3038;51.122;6.840;2023-03-19T07:36:37;4.27;;;3.87;;
6019;SDS011;3038;51.122;6.840;2023-03-19T07:39:02;4.20;;;3.90;;
6019;SDS011;3038;51.122;6.840;2023-03-19T07:41:28;3.20;;;3.00;;
6019;SDS011;3038;51.122;6.840;2023-03-19T07:43:53;4.30;;;3.47;;
6019;SDS011;3038;51.122;6.840;2023-03-19T07:46:19;5.03;;;3.30;;
6019;SDS011;3038;51.122;6.840;2023-03-19T07:48:45;4.13;;;3.30;;
6019;SDS011;3038;51.122;6.840;2023-03-19T07:51:11;3.50;;;3.20;;
6019;SDS011;3038;51.122;6.840;2023-03-19T07:53:36;3.90;;;3.60;;
6019;SDS011;3038;51.122;6.840;2023-03-19T07:56:01;4.60;;;3.40;;
6019;SDS011;3038;51.122;6.840;2023-03-19T07:58:27;5.00;;;3.77;;
6019;SDS011;3038;51.122;6.840;2023-03-19T08:00:52;3.80;;;3.37;;
6019;SDS011;3038;51.122;6.840;2023-03-19T08:03:18;3.57;;;3.27;;
6019;SDS011;3038;51.122;6.840;2023-03-19T08:05:44;4.30;;;3.90;;
6019;SDS011;3038;51.122;6.840;2023-03-19T08:08:09;3.43;;;3.13;;
6019;SDS011;3038;51.122;6.840;2023-03-19T08:10:34;3.60;;;3.30;;
6019;SDS011;3038;51.122;6.840;2023-03-19T08:13:00;4.00;;;3.70;;
6019;SDS011;3038;51.122;6.840;2023-03-19T08:15:25;4.00;;;3.70;;
6019;SDS011;3038;51.122;6.840;2023-03-19T08:17:58;4.73;;;3.77;;
6019;SDS011;3038;51.122;6.840;2023-03-19T08:20:24;3.73;;;3.40;;
6019;SDS011;3038;51.122;6.840;2023-03-19T08:22:50;4.13;;;3.70;;
6019;SDS011;3038;51.122;6.840;2023-03-19T08:25:16;4.10;;;3.80;;
6019;SDS011;3038;51.122;6.840;2023-03-19T08:27:41;3.50;;;3.20;;
6019;SDS011;3038;51.122;6.840;2023-03-19T08:30:07;3.87;;;3.57;;
6019;SDS011;3038;51.122;6.840;2023-03-19T08:32:34;3.97;;;3.67;;
6019;SDS011;3038;51.122;6.840;2023-03-19T08:35:00;3.93;;;3.60;;
6019;SDS011;3038;51.122;6.840;2023-03-19T08:37:26;3.67;;;3.40;;
6019;SDS011;3038;51.122;6.840;2023-03-19T08:39:52;3.87;;;3.57;;
6019;SDS011;3038;51.122;6.840;2023-03-19T08:42:18;5.10;;;3.70;;
6019;SDS011;3038;51.122;6.840;2023-03-19T08:44:44;3.50;;;3.30;;
6019;SDS011;3038;51.122;6.840;2023-03-19T08:47:09;4.17;;;3.87;;
6019;SDS011;3038;51.122;6.840;2023-03-19T08:49:36;4.03;;;3.63;;
6019;SDS011;3038;51.122;6.840;2023-03-19T08:52:01;4.03;;;3.60;;
6019;SDS011;3038;51.122;6.840;2023-03-19T08:54:28;4.27;;;3.87;;
6019;SDS011;3038;51.122;6.840;2023-03-19T08:56:53;4.77;;;4.37;;
6019;SDS011;3038;51.122;6.840;2023-03-19T08:59:18;4.50;;;4.00;;
6019;SDS011;3038;51.122;6.840;2023-03-19T09:01:44;4.17;;;3.87;;
6019;SDS011;3038;51.122;6.840;2023-03-19T09:04:09;4.40;;;4.00;;
6019;SDS011;3038;51.122;6.840;2023-03-19T09:06:35;4.20;;;3.80;;
6019;SDS011;3038;51.122;6.840;2023-03-19T09:09:00;4.80;;;4.50;;
6019;SDS011;3038;51.122;6.840;2023-03-19T09:11:25;6.73;;;4.10;;
6019;SDS011;3038;51.122;6.840;2023-03-19T09:13:51;4.37;;;3.97;;
6019;SDS011;3038;51.122;6.840;2023-03-19T09:16:16;4.47;;;4.07;;
6019;SDS011;3038;51.122;6.840;2023-03-19T09:18:42;4.30;;;4.00;;
6019;SDS011;3038;51.122;6.840;2023-03-19T09:21:07;4.80;;;4.30;;
6019;SDS011;3038;51.122;6.840;2023-03-19T09:23:33;7.23;;;3.90;;
6019;SDS011;3038;51.122;6.840;2023-03-19T09:25:58;3.70;;;3.40;;
6019;SDS011;3038;51.122;6.840;2023-03-19T09:28:24;4.33;;;3.93;;
6019;SDS011;3038;51.122;6.840;2023-03-19T09:30:50;3.97;;;3.67;;
6019;SDS011;3038;51.122;6.840;2023-03-19T09:33:16;4.20;;;3.90;;
6019;SDS011;3038;51.122;6.840;2023-03-19T09:35:47;3.73;;;3.43;;
6019;SDS011;3038;51.122;6.840;2023-03-19T09:38:14;3.53;;;3.23;;
6019;SDS011;3038;51.122;6.840;2023-03-19T09:40:40;4.20;;;3.90;;
6019;SDS011;3038;51.122;6.840;2023-03-19T09:46:13;3.60;;;3.30;;
6019;SDS011;3038;51.122;6.840;2023-03-19T09:48:51;3.60;;;3.40;;
6019;SDS011;3038;51.122;6.840;2023-03-19T09:51:42;7.77;;;6.97;;
6019;SDS011;3038;51.122;6.840;2023-03-19T09:54:24;4.70;;;4.30;;
6019;SDS011;3038;51.122;6.840;2023-03-19T09:57:10;4.73;;;4.37;;
6019;SDS011;3038;51.122;6.840;2023-03-19T09:59:36;4.83;;;4.43;;
6019;SDS011;3038;51.122;6.840;2023-03-19T10:02:18;5.70;;;4.93;;
6019;SDS011;3038;51.122;6.840;2023-03-19T10:05:02;5.97;;;5.43;;
6019;SDS011;3038;51.122;6.840;2023-03-19T10:07:51;4.67;;;4.37;;
6019;SDS011;3038;51.122;6.840;2023-03-19T10:10:46;4.83;;;4.33;;
6019;SDS011;3038;51.122;6.840;2023-03-19T10:14:14;5.33;;;4.90;;
6019;SDS011;3038;51.122;6.840;2023-03-19T10:16:37;4.17;;;3.93;;
6019;SDS011;3038;51.122;6.840;2023-03-19T10:19:05;4.47;;;4.07;;
6019;SDS011;3038;51.122;6.840;2023-03-19T10:21:44;4.43;;;4.10;;
6019;SDS011;3038;51.122;6.840;2023-03-19T10:24:17;4.40;;;4.00;;
6019;SDS011;3038;51.122;6.840;2023-03-19T10:26:47;3.87;;;3.57;;
6019;SDS011;3038;51.122;6.840;2023-03-19T10:29:14;3.37;;;3.17;;
6019;SDS011;3038;51.122;6.840;2023-03-19T10:37:03;4.47;;;4.17;;
6019;SDS011;3038;51.122;6.840;2023-03-19T10:39:38;5.63;;;5.20;;
6019;SDS011;3038;51.122;6.840;2023-03-19T10:44:41;5.80;;;5.27;;
6019;SDS011;3038;51.122;6.840;2023-03-19T10:47:13;6.40;;;5.80;;
6019;SDS011;3038;51.122;6.840;2023-03-19T10:49:39;6.40;;;6.00;;
6019;SDS011;3038;51.122;6.840;2023-03-19T10:52:06;6.10;;;5.63;;
6019;SDS011;3038;51.122;6.840;2023-03-19T10:54:43;6.80;;;6.30;;
6019;SDS011;3038;51.122;6.840;2023-03-19T10:57:20;6.20;;;5.70;;
6019;SDS011;3038;51.122;6.840;2023-03-19T10:59:50;6.10;;;5.70;;
6019;SDS011;3038;51.122;6.840;2023-03-19T11:02:17;6.93;;;6.40;;
6019;SDS011;3038;51.122;6.840;2023-03-19T11:04:44;6.90;;;6.27;;
6019;SDS011;3038;51.122;6.840;2023-03-19T11:07:11;7.50;;;6.90;;
6019;SDS011;3038;51.122;6.840;2023-03-19T11:09:39;8.53;;;6.10;;
6019;SDS011;3038;51.122;6.840;2023-03-19T11:14:47;7.20;;;6.60;;
6019;SDS011;3038;51.122;6.840;2023-03-19T11:19:54;7.33;;;6.63;;
6019;SDS011;3038;51.122;6.840;2023-03-19T11:22:26;6.67;;;6.00;;
6019;SDS011;3038;51.122;6.840;2023-03-19T11:25:17;5.83;;;5.37;;
6019;SDS011;3038;51.122;6.840;2023-03-19T11:47:31;4.27;;;3.97;;
6019;SDS011;3038;51.122;6.840;2023-03-19T11:52:59;5.40;;;4.90;;
6019;SDS011;3038;51.122;6.840;2023-03-19T12:00:50;4.83;;;4.50;;
6019;SDS011;3038;51.122;6.840;2023-03-19T12:10:02;6.70;;;4.10;;
6019;SDS011;3038;51.122;6.840;2023-03-19T12:12:10;3.80;;;3.50;;
6019;SDS011;3038;51.122;6.840;2023-03-19T12:15:33;4.10;;;3.80;;
6019;SDS011;3038;51.122;6.840;2023-03-19T12:18:04;4.60;;;4.30;;
6019;SDS011;3038;51.122;6.840;2023-03-19T12:21:02;4.07;;;3.70;;
6019;SDS011;3038;51.122;6.840;2023-03-19T12:26:31;4.00;;;3.60;;
6019;SDS011;3038;51.122;6.840;2023-03-19T12:29:07;3.90;;;3.50;;
6019;SDS011;3038;51.122;6.840;2023-03-19T12:31:41;4.07;;;3.77;;
6019;SDS011;3038;51.122;6.840;2023-03-19T12:34:37;4.23;;;3.93;;
6019;SDS011;3038;51.122;6.840;2023-03-19T12:39:57;5.67;;;4.60;;
6019;SDS011;3038;51.122;6.840;2023-03-19T12:42:38;5.33;;;4.93;;
6019;SDS011;3038;51.122;6.840;2023-03-19T12:45:07;5.83;;;5.33;;
6019;SDS011;3038;51.122;6.840;2023-03-19T12:47:44;6.50;;;6.00;;
6019;SDS011;3038;51.122;6.840;2023-03-19T12:50:12;5.40;;;4.90;;
6019;SDS011;3038;51.122;6.840;2023-03-19T12:52:48;6.83;;;6.13;;
6019;SDS011;3038;51.122;6.840;2023-03-19T12:58:19;6.60;;;6.00;;
6019;SDS011;3038;51.122;6.840;2023-03-19T13:00:55;5.70;;;5.20;;
6019;SDS011;3038;51.122;6.840;2023-03-19T13:11:53;5.37;;;4.87;;
6019;SDS011;3038;51.122;6.840;2023-03-19T13:14:28;4.87;;;4.47;;
6019;SDS011;3038;51.122;6.840;2023-03-19T13:17:06;6.23;;;5.33;;
6019;SDS011;3038;51.122;6.840;2023-03-19T13:19:44;6.80;;;5.90;;
6019;SDS011;3038;51.122;6.840;2023-03-19T13:22:16;6.13;;;5.63;;
6019;SDS011;3038;51.122;6.840;2023-03-19T13:24:46;5.30;;;4.90;;
6019;SDS011;3038;51.122;6.840;2023-03-19T13:27:23;6.23;;;5.63;;
6019;SDS011;3038;51.122;6.840;2023-03-19T13:30:15;7.13;;;6.50;;
6019;SDS011;3038;51.122;6.840;2023-03-19T13:37:58;6.77;;;6.13;;
6019;SDS011;3038;51.122;6.840;2023-03-19T13:40:45;8.43;;;5.63;;
6019;SDS011;3038;51.122;6.840;2023-03-19T13:43:20;6.47;;;5.30;;
6019;SDS011;3038;51.122;6.840;2023-03-19T13:46:02;8.73;;;5.80;;
6019;SDS011;3038;51.122;6.840;2023-03-19T13:53:40;6.77;;;6.17;;
6019;SDS011;3038;51.122;6.840;2023-03-19T13:56:16;6.73;;;6.13;;
6019;SDS011;3038;51.122;6.840;2023-03-19T13:58:48;7.43;;;5.87;;
6019;SDS011;3038;51.122;6.840;2023-03-19T14:01:37;6.37;;;5.77;;
6019;SDS011;3038;51.122;6.840;2023-03-19T14:04:04;6.50;;;6.00;;
6019;SDS011;3038;51.122;6.840;2023-03-19T14:06:41;6.57;;;5.37;;
6019;SDS011;3038;51.122;6.840;2023-03-19T14:15:13;8.37;;;5.30;;
6019;SDS011;3038;51.122;6.840;2023-03-19T14:22:55;5.50;;;4.60;;
6019;SDS011;3038;51.122;6.840;2023-03-19T14:25:51;5.83;;;4.80;;
6019;SDS011;3038;51.122;6.840;2023-03-19T14:28:32;5.80;;;4.80;;
6019;SDS011;3038;51.122;6.840;2023-03-19T14:30:58;5.20;;;4.70;;
6019;SDS011;3038;51.122;6.840;2023-03-19T14:33:25;4.50;;;4.17;;
6019;SDS011;3038;51.122;6.840;2023-03-19T14:35:55;4.90;;;4.23;;
6019;SDS011;3038;51.122;6.840;2023-03-19T14:38:37;4.43;;;4.03;;
6019;SDS011;3038;51.122;6.840;2023-03-19T14:41:10;7.37;;;5.63;;
6019;SDS011;3038;51.122;6.840;2023-03-19T14:49:35;5.77;;;5.20;;
6019;SDS011;3038;51.122;6.840;2023-03-19T14:54:58;5.97;;;4.90;;
6019;SDS011;3038;51.122;6.840;2023-03-19T14:57:30;6.73;;;5.33;;
6019;SDS011;3038;51.122;6.840;2023-03-19T14:59:57;5.70;;;5.13;;
6019;SDS011;3038;51.122;6.840;2023-03-19T15:02:30;5.13;;;4.60;;
6019;SDS011;3038;51.122;6.840;2023-03-19T15:05:05;6.40;;;5.90;;
6019;SDS011;3038;51.122;6.840;2023-03-19T15:07:40;7.30;;;6.10;;
6019;SDS011;3038;51.122;6.840;2023-03-19T15:10:14;7.87;;;7.17;;
6019;SDS011;3038;51.122;6.840;2023-03-19T15:18:35;5.70;;;5.20;;
6019;SDS011;3038;51.122;6.840;2023-03-19T15:21:02;7.00;;;6.40;;
6019;SDS011;3038;51.122;6.840;2023-03-19T15:23:29;7.10;;;6.40;;
6019;SDS011;3038;51.122;6.840;2023-03-19T15:25:56;7.73;;;6.27;;
6019;SDS011;3038;51.122;6.840;2023-03-19T15:28:27;7.73;;;5.87;;
6019;SDS011;3038;51.122;6.840;2023-03-19T15:30:56;6.97;;;6.27;;
6019;SDS011;3038;51.122;6.840;2023-03-19T15:33:30;6.70;;;6.10;;
6019;SDS011;3038;51.122;6.840;2023-03-19T15:41:21;6.17;;;5.67;;
6019;SDS011;3038;51.122;6.840;2023-03-19T15:43:49;8.33;;;7.53;;
6019;SDS011;3038;51.122;6.840;2023-03-19T15:46:16;7.53;;;6.83;;
6019;SDS011;3038;51.122;6.840;2023-03-19T15:49:00;7.00;;;6.40;;
6019;SDS011;3038;51.122;6.840;2023-03-19T15:51:30;6.30;;;5.80;;
6019;SDS011;3038;51.122;6.840;2023-03-19T15:53:57;6.40;;;5.90;;
6019;SDS011;3038;51.122;6.840;2023-03-19T15:56:25;5.50;;;5.00;;
6019;SDS011;3038;51.122;6.840;2023-03-19T15:58:51;4.23;;;3.77;;
6019;SDS011;3038;51.122;6.840;2023-03-19T16:01:21;3.93;;;3.57;;
6019;SDS011;3038;51.122;6.840;2023-03-19T16:03:58;5.13;;;4.00;;
6019;SDS011;3038;51.122;6.840;2023-03-19T16:06:27;3.87;;;3.57;;
6019;SDS011;3038;51.122;6.840;2023-03-19T16:08:54;4.17;;;3.77;;
6019;SDS011;3038;51.122;6.840;2023-03-19T16:11:37;4.27;;;3.97;;
6019;SDS011;3038;51.122;6.840;2023-03-19T16:14:09;4.67;;;4.27;;
6019;SDS011;3038;51.122;6.840;2023-03-19T16:17:00;4.77;;;4.37;;
6019;SDS011;3038;51.122;6.840;2023-03-19T16:19:34;5.90;;;5.40;;
6019;SDS011;3038;51.122;6.840;2023-03-19T16:22:03;6.30;;;5.70;;
6019;SDS011;3038;51.122;6.840;2023-03-19T16:24:37;5.50;;;5.00;;
6019;SDS011;3038;51.122;6.840;2023-03-19T16:27:06;6.63;;;5.10;;
6019;SDS011;3038;51.122;6.840;2023-03-19T16:29:37;5.47;;;5.07;;
6019;SDS011;3038;51.122;6.840;2023-03-19T16:32:16;4.93;;;4.47;;
6019;SDS011;3038;51.122;6.840;2023-03-19T16:34:46;6.13;;;5.53;;
6019;SDS011;3038;51.122;6.840;2023-03-19T16:44:56;7.30;;;6.07;;
6019;SDS011;3038;51.122;6.840;2023-03-19T16:47:21;4.80;;;4.40;;
6019;SDS011;3038;51.122;6.840;2023-03-19T16:49:47;5.77;;;5.37;;
6019;SDS011;3038;51.122;6.840;2023-03-19T16:52:13;4.90;;;4.50;;
6019;SDS011;3038;51.122;6.840;2023-03-19T16:54:42;4.23;;;3.83;;
6019;SDS011;3038;51.122;6.840;2023-03-19T16:57:11;3.77;;;3.47;;
6019;SDS011;3038;51.122;6.840;2023-03-19T16:59:39;3.80;;;3.50;;
6019;SDS011;3038;51.122;6.840;2023-03-19T17:02:11;4.13;;;3.83;;
6019;SDS011;3038;51.122;6.840;2023-03-19T17:04:38;3.97;;;3.67;;
6019;SDS011;3038;51.122;6.840;2023-03-19T17:07:03;3.83;;;3.53;;
6019;SDS011;3038;51.122;6.840;2023-03-19T17:09:30;3.40;;;3.10;;
6019;SDS011;3038;51.122;6.840;2023-03-19T17:11:55;4.00;;;3.60;;
6019;SDS011;3038;51.122;6.840;2023-03-19T17:14:21;3.53;;;3.27;;
6019;SDS011;3038;51.122;6.840;2023-03-19T17:16:47;3.80;;;3.47;;
6019;SDS011;3038;51.122;6.840;2023-03-19T17:19:16;3.40;;;3.10;;
6019;SDS011;3038;51.122;6.840;2023-03-19T17:21:43;3.90;;;3.60;;
6019;SDS011;3038;51.122;6.840;2023-03-19T17:24:20;3.63;;;3.33;;